Time;durP1;ratioP1;P1;durP2;ratioP2;P2;SDS_P1;SDS_P2;PMS_P1;PMS_P2;Temp;Humidity;BMP_temperature;BMP_pressure;BME280_temperature;BME280_humidity;BME280_pressure;Samples;Min_cycle;Max_cycle;Signal;HPM_P1;HPM_P2
2022/01/08 00:01:11;;;;;;;23.73;9.82;;;;;;;2.10;100.00;96879.38;5023257;28;20507;-67
2022/01/08 00:03:39;;;;;;;22.95;10.30;;;;;;;4.46;100.00;97241.94;5023300;28;20056;-68
2022/01/08 00:06:07;;;;;;;20.40;9.13;;;;;;;3.66;100.00;97113.13;5021564;28;20053;-62
2022/01/08 00:08:34;;;;;;;17.48;8.95;;;;;;;4.06;100.00;97176.72;5023027;28;20528;-67
2022/01/08 00:11:01;;;;;;;20.13;9.93;;;;;;;4.43;100.00;97231.63;5023281;28;20363;-62
2022/01/08 00:13:28;;;;;;;20.10;8.95;;;;;;;4.40;100.00;97221.31;5025324;28;20049;-67
2022/01/08 00:15:55;;;;;;;20.52;10.23;;;;;;;3.99;100.00;97149.81;5025375;28;20515;-63
2022/01/08 00:18:21;;;;;;;19.40;8.85;;;;;;;4.20;100.00;97193.78;5027409;28;20061;-67
2022/01/08 00:20:48;;;;;;;18.10;8.93;;;;;;;4.58;100.00;97233.84;5025515;28;20064;-67
2022/01/08 00:23:15;;;;;;;18.00;8.18;;;;;;;4.69;100.00;97229.63;5026736;28;20421;-67
2022/01/08 00:25:42;;;;;;;19.60;8.98;;;;;;;4.29;100.00;97194.56;5026485;28;20053;-67
2022/01/08 00:28:08;;;;;;;17.80;8.60;;;;;;;4.24;100.00;97165.41;5025310;28;20053;-63
2022/01/08 00:30:35;;;;;;;21.35;9.27;;;;;;;4.61;100.00;97227.72;5026768;28;20140;-67
2022/01/08 00:33:02;;;;;;;22.40;9.35;;;;;;;4.60;100.00;97223.34;5026666;28;20063;-63
2022/01/08 00:35:29;;;;;;;24.88;10.13;;;;;;;4.61;100.00;97222.25;5024860;28;20056;-66
2022/01/08 00:37:56;;;;;;;22.10;8.32;;;;;;;4.65;100.00;97223.19;5026456;28;20484;-68
2022/01/08 00:40:23;;;;;;;20.98;9.50;;;;;;;4.68;100.00;97208.81;5026378;28;20064;-67
2022/01/08 00:42:50;;;;;;;21.40;8.60;;;;;;;4.63;100.00;97203.50;5025391;28;20432;-62
2022/01/08 00:45:16;;;;;;;16.00;7.32;;;;;;;4.42;100.00;97180.69;5026071;28;20054;-63
2022/01/08 00:47:43;;;;;;;26.58;11.18;;;;;;;4.57;100.00;97199.31;5027560;28;20060;-65
2022/01/08 00:50:12;;;;;;;33.65;12.02;;;;;;;4.65;100.00;97195.75;5046445;28;20053;-64
2022/01/08 00:52:42;;;;;;;33.90;10.73;;;;;;;4.65;100.00;97195.75;5044641;28;20059;-62
2022/01/08 00:55:10;;;;;;;31.38;11.38;;;;;;;4.12;100.00;97121.41;5045715;28;20063;-67
2022/01/08 00:57:37;;;;;;;20.35;8.77;;;;;;;4.69;100.00;97190.41;5046311;28;20055;-67
2022/01/08 01:00:07;;;;;;;18.73;7.63;;;;;;;4.71;100.00;97192.84;5046063;28;20071;-69
2022/01/08 01:02:33;;;;;;;18.80;7.60;;;;;;;4.77;100.00;97186.84;5046253;28;20064;-63
2022/01/08 01:05:01;;;;;;;16.85;7.55;;;;;;;4.71;100.00;97173.63;5044089;28;20484;-67
2022/01/08 01:07:27;;;;;;;15.90;8.10;;;;;;;4.85;100.00;97179.69;5045746;28;20483;-68
2022/01/08 01:09:54;;;;;;;14.75;6.80;;;;;;;4.89;100.00;97178.69;5044291;28;20049;-64
2022/01/08 01:12:21;;;;;;;16.63;8.70;;;;;;;4.97;100.00;97179.78;5044669;28;20053;-68
2022/01/08 01:15:08;;;;;;;18.83;8.70;;;;;;;4.93;100.00;97174.19;5044849;28;20060;-68
2022/01/08 01:17:34;;;;;;;18.30;8.43;;;;;;;4.97;100.00;97174.28;5045895;28;20052;-63
2022/01/08 01:20:02;;;;;;;17.33;8.90;;;;;;;4.77;100.00;97142.94;5045665;28;20518;-62
2022/01/08 01:22:39;;;;;;;18.50;9.20;;;;;;;4.95;100.00;97165.59;5046060;28;20063;-68
2022/01/08 01:25:07;;;;;;;19.60;8.50;;;;;;;4.91;100.00;97159.16;5043420;28;20049;-60
2022/01/08 01:30:15;;;;;;;22.65;10.32;;;;;;;4.84;100.00;97143.22;5045518;28;20454;-64
2022/01/08 01:41:30;;;;;;;22.10;10.77;;;;;;;5.01;100.00;97153.31;5044766;28;20060;-61
2022/01/08 01:49:20;;;;;;;18.08;8.93;;;;;;;4.36;100.00;97061.31;5031536;28;20057;-67
2022/01/08 01:51:47;;;;;;;15.40;7.45;;;;;;;4.71;100.00;97094.06;5025055;28;20053;-63
2022/01/08 01:54:14;;;;;;;38.85;15.10;;;;;;;4.99;100.00;97133.59;5025047;28;20053;-68
2022/01/08 01:56:41;;;;;;;44.85;17.85;;;;;;;4.69;100.00;97097.94;5023851;28;20475;-62
2022/01/08 01:59:08;;;;;;;27.75;12.90;;;;;;;2.73;100.00;96772.06;5024762;28;20053;-68
2022/01/08 02:01:35;;;;;;;25.23;11.52;;;;;;;4.92;100.00;97134.13;5024948;28;20057;-67
2022/01/08 02:04:02;;;;;;;24.88;10.77;;;;;;;4.53;100.00;97080.44;5023490;28;20057;-62
2022/01/08 02:06:28;;;;;;;21.45;9.25;;;;;;;4.80;100.00;97103.03;5024445;28;20058;-66
2022/01/08 02:08:55;;;;;;;24.15;10.05;;;;;;;4.79;100.00;97095.97;5024302;28;20063;-63
2022/01/08 02:11:22;;;;;;;28.13;11.15;;;;;;;4.94;100.00;97114.59;5025007;28;20066;-67
2022/01/08 02:13:51;;;;;;;25.55;10.70;;;;;;;4.92;100.00;97105.88;5024539;28;20110;-64
2022/01/08 02:16:17;;;;;;;20.20;8.90;;;;;;;4.93;100.00;97102.00;5023228;28;20053;-64
2022/01/08 02:18:46;;;;;;;15.23;7.35;;;;;;;4.84;100.00;97110.28;5024444;28;20523;-68
2022/01/08 02:21:15;;;;;;;15.25;7.45;;;;;;;4.68;100.00;97108.44;5022808;28;20068;-63
2022/01/08 02:23:42;;;;;;;25.17;10.10;;;;;;;4.81;100.00;97099.16;5023049;28;20049;-68
2022/01/08 02:26:11;;;;;;;18.67;8.07;;;;;;;4.90;100.00;97103.44;5024378;28;20069;-62
2022/01/08 02:28:38;;;;;;;17.10;8.40;;;;;;;4.91;100.00;97094.09;5024517;28;20059;-63
2022/01/08 02:31:05;;;;;;;15.27;7.53;;;;;;;4.38;100.00;97033.56;5024750;28;20480;-67
2022/01/08 02:33:32;;;;;;;14.55;6.60;;;;;;;4.87;100.00;97097.84;5024601;28;20064;-68
2022/01/08 02:36:05;;;;;;;16.42;6.43;;;;;;;4.91;100.00;97098.78;5022028;28;20054;-63
2022/01/08 02:38:33;;;;;;;;;;;;;;;4.89;100.00;97106.53;5024481;28;20061;-62
2022/01/08 02:41:03;;;;;;;10.23;4.65;;;;;;;4.03;100.00;96997.28;5023803;28;19925;-68
2022/01/08 02:43:33;;;;;;;11.23;5.70;;;;;;;4.76;100.00;97102.13;5022700;28;20441;-68
2022/01/08 02:46:00;;;;;;;10.40;5.93;;;;;;;4.80;100.00;97092.06;5024352;28;20444;-70
2022/01/08 02:48:27;;;;;;;11.10;5.63;;;;;;;4.49;100.00;97043.84;5030231;28;20044;-68
2022/01/08 02:50:54;;;;;;;14.18;5.95;;;;;;;4.83;100.00;97096.88;5043660;28;20051;-63
2022/01/08 02:53:20;;;;;;;10.27;5.32;;;;;;;4.82;100.00;97093.34;5044045;28;20101;-62
2022/01/08 02:55:51;;;;;;;12.45;5.18;;;;;;;4.88;100.00;97082.97;5042487;28;20499;-68
2022/01/08 02:58:18;;;;;;;13.27;6.50;;;;;;;4.99;100.00;97095.19;5043759;28;20056;-68
2022/01/08 03:00:44;;;;;;;10.50;5.30;;;;;;;5.06;100.00;97177.81;5043713;28;20067;-67
2022/01/08 03:03:13;;;;;;;12.07;6.03;;;;;;;5.05;100.00;97088.34;5043768;28;20060;-67
2022/01/08 03:05:41;;;;;;;14.13;6.10;;;;;;;4.69;100.00;97034.81;5043922;28;20061;-63
2022/01/08 03:08:07;;;;;;;11.15;5.63;;;;;;;4.93;100.00;97099.25;5043714;28;20053;-62
2022/01/08 03:10:34;;;;;;;14.82;5.85;;;;;;;4.79;100.00;97069.31;5043443;28;20496;-68
2022/01/08 03:13:02;;;;;;;17.25;6.47;;;;;;;4.19;100.00;96973.69;5043290;28;20049;-68
2022/01/08 03:15:33;;;;;;;14.05;6.50;;;;;;;4.96;100.00;97106.81;5043283;28;20076;-68
2022/01/08 03:18:00;;;;;;;16.88;7.03;;;;;;;4.76;100.00;97074.69;5042430;28;20847;-68
2022/01/08 03:20:27;;;;;;;19.98;8.05;;;;;;;4.88;100.00;97089.28;5041908;28;20451;-62
2022/01/08 03:23:01;;;;;;;16.70;8.00;;;;;;;4.85;100.00;97086.41;5043718;28;20491;-64
2022/01/08 03:25:29;;;;;;;10.35;5.20;;;;;;;4.82;100.00;97073.34;5043072;28;20061;-63
2022/01/08 03:27:56;;;;;;;7.97;4.80;;;;;;;4.12;100.00;96973.41;5043305;28;20060;-63
2022/01/08 03:30:24;;;;;;;9.80;5.40;;;;;;;4.20;100.00;96964.34;5041958;28;20053;-62
2022/01/08 03:32:52;;;;;;;12.65;6.03;;;;;;;4.38;100.00;96982.28;5043253;28;20048;-63
2022/01/08 03:35:19;;;;;;;19.38;7.40;;;;;;;4.79;100.00;97052.06;5041599;28;20701;-69
2022/01/08 03:37:47;;;;;;;17.50;7.63;;;;;;;4.68;100.00;97040.66;5043708;28;20079;-63
2022/01/08 03:40:14;;;;;;;16.77;7.85;;;;;;;4.91;100.00;97065.84;5041742;28;20049;-63
2022/01/08 03:42:41;;;;;;;16.05;6.55;;;;;;;4.22;100.00;96962.06;5043426;28;20450;-63
2022/01/08 03:45:08;;;;;;;21.08;7.35;;;;;;;4.89;100.00;97073.59;5041849;28;20049;-64
2022/01/08 03:50:15;;;;;;;12.07;4.50;;;;;;;4.84;100.00;97071.06;5027176;28;20255;-62
2022/01/08 03:52:41;;;;;;;7.45;4.13;;;;;;;4.94;100.00;97071.47;5027002;28;20053;-64
2022/01/08 03:55:08;;;;;;;5.15;3.00;;;;;;;4.61;100.00;97019.25;5042285;28;20108;-63
2022/01/08 03:57:35;;;;;;;6.35;3.40;;;;;;;4.69;100.00;97025.81;5025298;28;20053;-63
2022/01/08 04:00:04;;;;;;;5.03;3.03;;;;;;;4.66;100.00;97019.03;5025996;28;20049;-68
2022/01/08 04:02:30;;;;;;;3.40;2.50;;;;;;;4.89;100.00;97068.94;5027867;28;20076;-64
2022/01/08 04:04:57;;;;;;;4.60;2.08;;;;;;;5.01;100.00;97070.94;5027575;28;20064;-69
2022/01/08 04:07:24;;;;;;;4.35;2.38;;;;;;;4.63;100.00;97027.16;5027551;28;20049;-64
2022/01/08 04:09:50;;;;;;;5.30;2.50;;;;;;;5.03;100.00;97068.66;5026125;28;20053;-64
2022/01/08 04:12:28;;;;;;;7.22;3.83;;;;;;;5.07;100.00;97067.69;5027454;28;20061;-69
2022/01/08 04:15:05;;;;;;;5.78;3.45;;;;;;;4.93;100.00;97041.63;5025769;28;20045;-63
2022/01/08 04:17:31;;;;;;;5.53;3.22;;;;;;;5.14;100.00;97070.69;5027372;28;20067;-63
2022/01/08 04:19:58;;;;;;;6.80;3.83;;;;;;;5.09;100.00;97072.84;5025850;28;20057;-65
2022/01/08 04:22:26;;;;;;;13.45;6.10;;;;;;;4.85;100.00;97039.75;5027315;28;20049;-69
2022/01/08 04:24:54;;;;;;;11.48;6.10;;;;;;;4.73;100.00;97017.72;5026380;28;20057;-65
2022/01/08 04:27:21;;;;;;;14.85;6.53;;;;;;;5.04;100.00;97076.59;5026702;28;20079;-63
2022/01/08 04:29:48;;;;;;;19.63;7.80;;;;;;;5.11;100.00;97074.09;5026314;28;20061;-68
2022/01/08 04:32:15;;;;;;;18.58;7.85;;;;;;;4.11;100.00;96906.00;5025001;28;20049;-63
2022/01/08 04:34:41;;;;;;;13.32;7.60;;;;;;;5.15;100.00;97066.00;5026371;28;20480;-65
2022/01/08 04:37:09;;;;;;;17.63;7.25;;;;;;;5.15;100.00;97066.81;5026207;28;20710;-68
2022/01/08 04:39:36;;;;;;;10.10;5.38;;;;;;;5.14;100.00;97069.91;5026921;28;20054;-63
2022/01/08 04:42:03;;;;;;;15.90;8.85;;;;;;;5.21;100.00;97059.16;5041147;28;20053;-69
2022/01/08 04:44:30;;;;;;;13.70;7.65;;;;;;;4.72;100.00;97002.38;5026061;28;20523;-64
2022/01/08 04:46:57;;;;;;;9.52;4.50;;;;;;;4.58;100.00;96976.00;5026223;28;20088;-68
2022/01/08 04:49:24;;;;;;;7.65;4.63;;;;;;;5.03;100.00;97041.22;5024920;28;20060;-69
2022/01/08 04:51:50;;;;;;;5.88;3.88;;;;;;;5.26;100.00;97072.69;5024483;28;20065;-69
2022/01/08 04:54:19;;;;;;;6.18;3.58;;;;;;;5.18;100.00;97081.81;5040934;28;20062;-69
2022/01/08 04:56:46;;;;;;;7.95;4.13;;;;;;;5.19;100.00;97072.41;5025849;28;20069;-68
2022/01/08 04:59:13;;;;;;;11.07;5.25;;;;;;;4.97;100.00;97028.81;5024816;28;20140;-65
2022/01/08 05:01:39;;;;;;;13.15;6.32;;;;;;;5.11;100.00;97067.78;5026455;28;20060;-69
2022/01/08 05:04:06;;;;;;;16.52;7.50;;;;;;;5.11;100.00;97043.09;5026121;28;20053;-69
2022/01/08 05:06:33;;;;;;;13.52;5.88;;;;;;;4.59;100.00;96966.66;5040860;28;20060;-69
2022/01/08 05:09:00;;;;;;;9.45;5.10;;;;;;;5.03;100.00;97030.22;5026195;28;20056;-65
2022/01/08 05:11:27;;;;;;;10.45;4.90;;;;;;;5.20;100.00;97068.56;5024397;28;20046;-68
2022/01/08 05:13:55;;;;;;;10.30;5.47;;;;;;;5.15;100.00;97057.75;5025582;28;20345;-68
2022/01/08 05:16:23;;;;;;;7.35;5.28;;;;;;;4.52;100.00;96955.41;5025741;28;20056;-64
2022/01/08 05:18:52;;;;;;;8.68;5.55;;;;;;;5.13;100.00;97062.78;5024016;28;20053;-65
2022/01/08 05:21:29;;;;;;;16.42;7.25;;;;;;;4.56;100.00;96967.34;5025653;28;20045;-65
2022/01/08 05:23:57;;;;;;;18.88;8.77;;;;;;;4.56;100.00;97033.16;5024306;28;20425;-68
2022/01/08 05:26:26;;;;;;;16.15;7.38;;;;;;;5.10;100.00;97044.22;5024181;28;20065;-69
2022/01/08 05:28:53;;;;;;;18.15;9.05;;;;;;;5.11;100.00;97043.09;5025603;28;20053;-66
2022/01/08 05:31:23;;;;;;;19.30;10.57;;;;;;;5.27;100.00;97066.06;5025567;28;20056;-69
2022/01/08 05:33:51;;;;;;;17.80;10.20;;;;;;;5.28;100.00;97059.44;5025519;28;20056;-69
2022/01/08 05:36:17;;;;;;;15.18;9.18;;;;;;;4.69;100.00;96971.72;5025367;28;20452;-64
2022/01/08 05:38:44;;;;;;;19.67;10.45;;;;;;;5.34;100.00;97058.09;5025416;28;20056;-64
2022/01/08 05:41:11;;;;;;;35.72;13.32;;;;;;;5.29;100.00;97050.06;5025108;28;20056;-65
2022/01/08 05:43:38;;;;;;;36.80;15.30;;;;;;;4.89;100.00;97007.75;5025140;28;20063;-64
2022/01/08 05:46:04;;;;;;;33.08;14.40;;;;;;;5.32;100.00;97065.84;5024912;28;20053;-64
2022/01/08 05:48:31;;;;;;;54.03;22.40;;;;;;;5.33;100.00;97067.44;5030780;28;20049;-69
2022/01/08 05:50:58;;;;;;;39.30;19.23;;;;;;;5.28;100.00;97067.69;5044474;28;20052;-64
2022/01/08 05:53:24;;;;;;;36.15;15.07;;;;;;;5.29;100.00;97063.78;5045191;28;20064;-69
2022/01/08 05:55:51;;;;;;;38.05;16.02;;;;;;;5.27;100.00;97064.13;5045206;28;20053;-69
2022/01/08 05:58:18;;;;;;;51.90;20.58;;;;;;;5.29;100.00;97063.78;5045292;28;20557;-68
2022/01/08 06:00:44;;;;;;;55.55;19.90;;;;;;;5.28;100.00;97064.94;5043453;28;20512;-65
2022/01/08 06:03:11;;;;;;;57.78;20.48;;;;;;;5.38;100.00;97065.31;5043472;28;20139;-67
2022/01/08 06:05:38;;;;;;;50.17;20.08;;;;;;;5.28;100.00;97048.47;5044945;28;20051;-65
2022/01/08 06:08:05;;;;;;;36.97;14.50;;;;;;;5.41;100.00;97063.84;5044221;28;20057;-68
2022/01/08 06:10:32;;;;;;;33.05;14.80;;;;;;;5.45;100.00;97059.28;5044380;28;20045;-69
2022/01/08 06:12:58;;;;;;;59.55;22.75;;;;;;;5.47;100.00;97065.25;5044419;28;20500;-68
2022/01/08 06:15:25;;;;;;;46.33;18.55;;;;;;;5.45;100.00;97064.78;5042983;28;20417;-69
2022/01/08 06:17:54;;;;;;;38.38;17.35;;;;;;;5.39;100.00;97072.41;5044901;28;20433;-64
2022/01/08 06:20:21;;;;;;;27.08;13.25;;;;;;;5.33;100.00;97062.78;5044178;28;20049;-68
2022/01/08 06:22:48;;;;;;;31.10;14.15;;;;;;;5.38;100.00;97075.50;5044580;28;20575;-68
2022/01/08 06:25:14;;;;;;;39.45;17.08;;;;;;;5.22;100.00;97036.06;5044343;28;20052;-67
2022/01/08 06:27:41;;;;;;;35.53;18.38;;;;;;;5.38;100.00;97070.00;5042839;28;20512;-64
2022/01/08 06:30:08;;;;;;;26.23;15.40;;;;;;;4.93;100.00;96992.22;5044261;28;20045;-70
2022/01/08 06:32:35;;;;;;;30.20;17.65;;;;;;;5.42;100.00;97066.25;5042852;28;20067;-69
2022/01/08 06:35:02;;;;;;;33.88;17.67;;;;;;;4.77;100.00;96958.28;5044129;28;20063;-64
2022/01/08 06:37:29;;;;;;;42.15;20.88;;;;;;;5.10;100.00;97033.25;5044755;28;20056;-65
2022/01/08 06:39:56;;;;;;;42.33;21.75;;;;;;;5.41;100.00;97048.16;5044411;28;20049;-67
2022/01/08 06:42:23;;;;;;;52.83;25.35;;;;;;;5.07;100.00;97053.16;5045417;28;20044;-71
2022/01/08 06:44:50;;;;;;;65.55;31.27;;;;;;;5.31;100.00;97028.56;5039086;28;20527;-63
2022/01/08 06:47:16;;;;;;;62.40;29.58;;;;;;;5.55;100.00;97058.84;5052376;28;20060;-64
2022/01/08 06:49:47;;;;;;;69.25;34.05;;;;;;;4.89;100.00;96941.88;5048890;28;20051;-62
2022/01/08 06:52:14;;;;;;;71.18;33.67;;;;;;;5.57;100.00;97057.41;5044490;28;20060;-63
2022/01/08 06:54:42;;;;;;;112.07;41.88;;;;;;;5.65;100.00;97055.69;5049622;28;20053;-63
2022/01/08 06:57:10;;;;;;;116.60;41.80;;;;;;;4.56;100.00;96879.56;5049303;28;20106;-64
2022/01/08 06:59:38;;;;;;;111.53;43.35;;;;;;;5.15;100.00;96975.41;5042150;28;20053;-63
2022/01/08 07:02:10;;;;;;;94.35;38.83;;;;;;;5.11;100.00;97016.44;5052688;28;20134;-64
2022/01/08 07:04:39;;;;;;;80.03;36.13;;;;;;;5.11;100.00;96982.69;5051116;28;20239;-62
2022/01/08 07:07:08;;;;;;;82.50;34.63;;;;;;;5.67;100.00;97053.41;5034493;28;20657;-67
2022/01/08 07:09:35;;;;;;;88.88;37.72;;;;;;;5.70;100.00;97055.50;5051570;28;20503;-63
2022/01/08 07:12:01;;;;;;;61.67;27.60;;;;;;;5.52;100.00;97037.56;5050558;28;20057;-65
2022/01/08 07:14:28;;;;;;;44.70;21.38;;;;;;;2.85;100.00;96611.63;5050240;28;20048;-63
2022/01/08 07:16:55;;;;;;;70.70;32.47;;;;;;;5.31;100.00;96998.34;5051242;28;20055;-66
2022/01/08 07:19:22;;;;;;;98.60;43.30;;;;;;;5.45;100.00;96987.88;5051454;28;20136;-64
2022/01/08 07:21:48;;;;;;;87.50;40.30;;;;;;;5.22;100.00;96962.72;5046917;28;20067;-69
2022/01/08 07:24:15;;;;;;;82.57;37.50;;;;;;;5.81;100.00;97051.16;5043758;28;20070;-67
2022/01/08 07:26:42;;;;;;;84.35;38.38;;;;;;;5.45;100.00;96988.69;5041936;28;20061;-66
2022/01/08 07:29:09;;;;;;;60.90;29.83;;;;;;;5.80;100.00;97060.56;5052088;28;20051;-65
2022/01/08 07:31:36;;;;;;;58.42;26.27;;;;;;;5.40;100.00;96975.16;5043657;28;20538;-68
2022/01/08 07:34:02;;;;;;;74.45;33.42;;;;;;;5.90;100.00;97051.91;5054587;28;20067;-65
2022/01/08 07:36:29;;;;;;;57.30;28.23;;;;;;;5.94;100.00;97055.59;5045887;28;20044;-66
2022/01/08 07:38:56;;;;;;;22.73;11.88;;;;;;;5.90;100.00;97049.97;5054241;28;20053;-63
2022/01/08 07:41:23;;;;;;;15.80;8.50;;;;;;;5.98;100.00;97045.50;5053034;28;20126;-64
2022/01/08 07:43:49;;;;;;;21.92;11.02;;;;;;;5.98;100.00;97056.50;5048526;28;20140;-66
2022/01/08 07:46:16;;;;;;;20.65;10.35;;;;;;;5.96;100.00;97047.78;5048310;28;20083;-66
2022/01/08 07:48:43;;;;;;;14.57;7.88;;;;;;;6.05;100.00;97041.03;5049133;28;20056;-68
2022/01/08 07:51:10;;;;;;;16.67;9.05;;;;;;;5.68;100.00;96989.06;5052334;28;20048;-64
2022/01/08 07:53:37;;;;;;;16.50;9.73;;;;;;;6.02;100.00;97046.44;5047205;28;20061;-65
2022/01/08 07:56:04;;;;;;;14.52;9.73;;;;;;;4.94;100.00;96873.06;5048614;28;20558;-66
2022/01/08 07:58:31;;;;;;;15.77;7.93;;;;;;;4.09;100.00;96721.94;5050106;28;20048;-65
2022/01/08 08:00:58;;;;;;;11.68;6.70;;;;;;;6.16;100.00;97044.19;5053645;28;20118;-65
2022/01/08 08:03:25;;;;;;;10.02;6.18;;;;;;;6.11;100.00;97044.41;5034012;28;20593;-63
2022/01/08 08:05:52;;;;;;;14.68;6.97;;;;;;;6.22;100.00;97033.75;5054653;28;20052;-64
2022/01/08 08:08:20;;;;;;;9.75;6.10;;;;;;;6.16;100.00;97035.94;5053007;28;20063;-66
2022/01/08 08:10:50;;;;;;;10.00;6.00;;;;;;;5.95;100.00;97035.19;5050709;28;20060;-65
2022/01/08 08:13:19;;;;;;;17.80;9.05;;;;;;;5.97;100.00;97049.41;5049193;28;20049;-64
2022/01/08 08:15:46;;;;;;;7.35;4.50;;;;;;;4.77;100.00;96832.91;5047741;28;20146;-67
2022/01/08 08:18:13;;;;;;;5.50;3.97;;;;;;;5.70;100.00;96973.88;5042617;28;20613;-66
2022/01/08 08:20:41;;;;;;;7.35;3.90;;;;;;;6.23;100.00;97025.16;5041026;28;20072;-67
2022/01/08 08:23:08;;;;;;;6.07;3.55;;;;;;;6.22;100.00;97033.75;5031483;28;20045;-66
2022/01/08 08:25:35;;;;;;;9.05;3.92;;;;;;;5.63;100.00;96909.59;5050848;28;20053;-66
2022/01/08 08:28:04;;;;;;;10.90;5.07;;;;;;;5.76;100.00;96969.75;5030812;28;20060;-64
2022/01/08 08:30:33;;;;;;;48.08;18.15;;;;;;;6.26;100.00;97018.97;5038315;28;20044;-65
2022/01/08 08:33:01;;;;;;;36.20;16.85;;;;;;;4.07;100.00;96685.84;5048568;28;20088;-64
2022/01/08 08:35:27;;;;;;;23.25;11.82;;;;;;;5.57;100.00;96872.50;5053025;28;20487;-66
2022/01/08 08:37:54;;;;;;;23.15;11.85;;;;;;;6.47;100.00;97024.34;5049492;28;20053;-65
2022/01/08 08:40:21;;;;;;;33.05;16.30;;;;;;;6.43;100.00;96980.25;5050682;28;20522;-64
2022/01/08 08:42:48;;;;;;;25.73;13.43;;;;;;;6.79;100.00;97007.72;5055556;28;20170;-66
2022/01/08 08:45:17;;;;;;;18.23;10.90;;;;;;;6.39;100.00;96927.03;5055600;28;20063;-64
2022/01/08 08:47:44;;;;;;;14.82;9.25;;;;;;;6.91;100.00;96990.34;5056841;28;20052;-65
2022/01/08 08:50:13;;;;;;;12.02;4.72;;;;;;;6.53;100.00;96919.22;5055652;28;20047;-66
2022/01/08 08:52:40;;;;;;;12.23;5.65;;;;;;;6.71;100.00;96947.28;5053296;28;20059;-65
2022/01/08 08:55:07;;;;;;;11.93;5.90;;;;;;;6.39;100.00;96880.28;5058815;28;20052;-64
2022/01/08 08:57:35;;;;;;;15.60;6.70;;;;;;;6.52;100.00;96927.81;5052024;28;20405;-66
2022/01/08 09:00:04;;;;;;;18.65;7.65;;;;;;;7.08;100.00;96996.38;5049392;28;20053;-61
2022/01/08 09:02:31;;;;;;;24.20;12.32;;;;;;;7.03;100.00;96977.38;5064056;28;20824;-63
2022/01/08 09:04:57;;;;;;;23.65;13.15;;;;;;;6.34;100.00;96833.75;5064011;28;20542;-62
2022/01/08 09:07:25;;;;;;;21.42;11.40;;;;;;;7.14;100.00;96972.16;5065282;28;20056;-64
2022/01/08 09:09:52;;;;;;;17.92;10.20;;;;;;;7.02;100.00;96947.41;5063721;28;20661;-64
2022/01/08 09:12:18;;;;;;;20.58;10.32;;;;;;;7.31;100.00;96969.91;5053919;28;20059;-64
2022/01/08 09:14:45;;;;;;;20.25;10.60;;;;;;;6.81;100.00;96936.56;5058284;28;20129;-68
2022/01/08 09:17:13;;;;;;;17.90;9.98;;;;;;;7.32;97.13;96935.69;5055845;28;20049;-60
2022/01/08 09:19:42;;;;;;;17.65;9.15;;;;;;;7.42;99.36;96951.72;5051914;28;20053;-67
2022/01/08 09:22:09;;;;;;;17.50;8.75;;;;;;;6.88;98.72;96881.72;5054388;28;20059;-67
2022/01/08 09:24:36;;;;;;;12.57;7.15;;;;;;;6.77;97.70;96852.28;5051353;28;20055;-64
2022/01/08 09:27:04;;;;;;;14.20;7.28;;;;;;;6.96;99.99;96897.31;5052248;28;20064;-67
2022/01/08 09:29:31;;;;;;;11.48;6.38;;;;;;;7.37;100.00;96982.28;5048692;28;20434;-68
2022/01/08 09:31:57;;;;;;;14.00;7.88;;;;;;;6.52;100.00;96823.28;5052305;28;20413;-65
2022/01/08 09:34:25;;;;;;;9.40;5.18;;;;;;;6.83;100.00;96834.41;5053519;28;20446;-66
2022/01/08 09:36:52;;;;;;;8.27;4.18;;;;;;;6.93;99.32;96884.25;5051753;28;20079;-65
2022/01/08 09:39:18;;;;;;;12.90;4.45;;;;;;;7.15;100.00;96908.47;5062376;28;20052;-64
2022/01/08 09:41:46;;;;;;;8.10;4.28;;;;;;;7.27;100.00;96922.16;5064383;28;20063;-64
2022/01/08 09:44:12;;;;;;;3.10;2.78;;;;;;;7.38;100.00;96923.25;5063548;28;20056;-64
2022/01/08 09:46:39;;;;;;;5.07;3.20;;;;;;;7.36;99.32;96899.97;5064789;28;20059;-64
2022/01/08 09:49:06;;;;;;;8.65;4.10;;;;;;;7.42;99.06;96918.66;5065096;28;20052;-63
2022/01/08 09:51:33;;;;;;;8.73;5.10;;;;;;;7.35;100.00;96901.94;5065481;28;20078;-65
2022/01/08 09:54:02;;;;;;;10.45;5.68;;;;;;;6.82;100.00;96839.09;5065454;28;20048;-64
2022/01/08 09:56:31;;;;;;;10.40;4.75;;;;;;;7.22;100.00;96897.63;5063675;28;20076;-64
2022/01/08 09:58:59;;;;;;;8.52;4.35;;;;;;;6.80;100.00;96835.88;5065037;28;20102;-64
2022/01/08 10:01:33;;;;;;;5.47;3.38;;;;;;;7.23;100.00;96893.75;5063437;28;20087;-65
2022/01/08 10:04:03;;;;;;;3.92;2.28;;;;;;;7.24;100.00;96895.31;5064235;28;20052;-64
2022/01/08 10:06:33;;;;;;;3.50;2.25;;;;;;;7.19;100.00;96881.81;5064700;28;20058;-64
2022/01/08 10:09:00;;;;;;;3.47;2.47;;;;;;;6.84;100.00;96830.47;5064765;28;20059;-66
2022/01/08 10:11:28;;;;;;;2.40;1.88;;;;;;;7.16;100.00;96882.50;5065064;28;20048;-63
2022/01/08 10:14:28;;;;;;;2.95;2.25;;;;;;;7.26;100.00;96873.75;5063249;28;20056;-63
2022/01/08 10:19:34;;;;;;;2.00;1.55;;;;;;;7.08;100.00;96831.16;5065206;28;20095;-63
2022/01/08 10:22:00;;;;;;;3.08;1.83;;;;;;;6.52;100.00;96738.78;5063015;28;20045;-66
2022/01/08 10:24:29;;;;;;;1.95;1.25;;;;;;;7.32;100.00;96847.53;5064726;28;20049;-63
2022/01/08 10:27:04;;;;;;;1.65;1.20;;;;;;;7.38;100.00;96846.09;5062653;28;20370;-64
2022/01/08 10:29:31;;;;;;;1.20;1.10;;;;;;;7.24;100.00;96823.72;5064093;28;20055;-64
2022/01/08 10:31:59;;;;;;;1.80;1.20;;;;;;;7.31;100.00;96823.91;5064445;28;20490;-63
2022/01/08 10:34:30;;;;;;;1.23;1.13;;;;;;;7.61;100.00;96844.34;5064569;28;20053;-65
2022/01/08 10:37:05;;;;;;;1.58;1.23;;;;;;;7.71;100.00;96838.28;5063136;28;20079;-63
2022/01/08 10:39:37;;;;;;;2.22;1.60;;;;;;;7.82;98.95;96832.25;5063827;28;20075;-63
2022/01/08 10:42:16;;;;;;;1.40;1.30;;;;;;;7.72;98.51;96830.81;5063812;28;20389;-64
2022/01/08 10:44:46;;;;;;;1.40;1.27;;;;;;;7.80;99.17;96826.28;5063970;28;20570;-63
2022/01/08 10:47:17;;;;;;;1.10;1.00;;;;;;;7.45;98.38;96818.75;5064067;28;20083;-64
2022/01/08 10:49:56;;;;;;;1.40;1.30;;;;;;;7.88;98.20;96814.25;5064069;28;20595;-64
2022/01/08 10:52:22;;;;;;;1.83;1.70;;;;;;;7.17;98.38;96734.59;5045070;28;20098;-63
2022/01/08 10:55:01;;;;;;;1.30;1.20;;;;;;;7.88;97.76;96808.75;5044617;28;20134;-62
2022/01/08 10:57:39;;;;;;;1.58;1.02;;;;;;;7.89;97.54;96804.84;5041483;28;20053;-64
2022/01/08 11:00:09;;;;;;;1.63;1.48;;;;;;;7.89;97.25;96799.34;5043642;28;20072;-63
2022/01/08 11:02:36;;;;;;;1.30;1.20;;;;;;;7.73;98.56;96786.38;5044305;28;20415;-64
2022/01/08 11:05:07;;;;;;;5.65;2.83;;;;;;;6.95;99.60;96729.72;5043942;28;20471;-62
2022/01/08 11:07:35;;;;;;;2.38;1.70;;;;;;;7.35;100.00;96775.19;5043193;28;20048;-64
2022/01/08 11:10:07;;;;;;;2.65;1.50;;;;;;;7.11;100.00;96791.09;5043665;28;20053;-62
2022/01/08 11:12:38;;;;;;;2.05;1.85;;;;;;;6.92;100.00;96793.75;5044221;28;20500;-62
2022/01/08 11:17:51;;;;;;;4.75;2.85;;;;;;;7.22;100.00;96784.69;5042972;28;20053;-63
2022/01/08 11:20:39;;;;;;;1.75;1.50;;;;;;;7.41;100.00;96790.28;5042153;28;20507;-63
2022/01/08 11:23:08;;;;;;;151.43;135.00;;;;;;;7.41;100.00;96776.50;5042270;28;20458;-63
2022/01/08 11:25:37;;;;;;;8.23;7.45;;;;;;;7.39;100.00;96781.59;5043467;28;20052;-63
2022/01/08 11:28:12;;;;;;;20.88;9.75;;;;;;;7.52;100.00;96774.81;5041618;28;20500;-64
2022/01/08 11:30:47;;;;;;;5.68;3.00;;;;;;;7.14;100.00;96697.56;5043240;28;20057;-63
2022/01/08 11:35:44;;;;;;;5.32;1.95;;;;;;;7.58;100.00;96762.38;5043731;28;20065;-63
2022/01/08 11:38:13;;;;;;;2.25;1.92;;;;;;;7.51;100.00;96751.19;5043782;28;20053;-63
2022/01/08 11:40:42;;;;;;;4.75;2.55;;;;;;;7.46;100.00;96758.94;5043693;28;20045;-64
2022/01/08 11:43:13;;;;;;;2.00;1.55;;;;;;;7.44;100.00;96748.28;5043474;28;20075;-63
2022/01/08 11:45:50;;;;;;;3.03;2.05;;;;;;;7.26;100.00;96722.25;5043237;28;20126;-64
2022/01/08 11:48:19;;;;;;;12.38;5.25;;;;;;;7.21;100.00;96725.25;5058576;28;20153;-62
2022/01/08 11:50:54;;;;;;;3.35;1.98;;;;;;;7.03;100.00;96756.28;5042983;28;20057;-64
2022/01/08 11:53:27;;;;;;;4.10;2.08;;;;;;;6.09;100.00;96667.25;5042144;28;20079;-64
2022/01/08 11:55:55;;;;;;;11.00;4.80;;;;;;;4.64;100.00;96381.44;5043302;28;20053;-63
2022/01/08 11:58:26;;;;;;;4.57;2.80;;;;;;;6.75;100.00;96734.28;5043257;28;20053;-64